Time;durP1;ratioP1;P1;durP2;ratioP2;P2;SDS_P1;SDS_P2;PMS_P1;PMS_P2;Temp;Humidity;BMP_temperature;BMP_pressure;BME280_temperature;BME280_humidity;BME280_pressure;Samples;Min_cycle;Max_cycle;Signal;HPM_P1;HPM_P2
2023/09/08 00:02:43;;;;;;;;;;;19.60;55.70;;;;;;5030078;28;19921;-70
2023/09/08 00:05:10;;;;;;;;;;;19.60;55.60;;;;;;5031828;28;19928;-71
2023/09/08 00:07:36;;;;;;;;;;;19.60;55.90;;;;;;5032161;28;20011;-70
2023/09/08 00:10:02;;;;;;;;;;;19.50;56.80;;;;;;5032031;28;20020;-70
2023/09/08 00:12:28;;;;;;;;;;;19.50;56.70;;;;;;5031241;28;19925;-71
2023/09/08 00:14:54;;;;;;;;;;;19.40;56.60;;;;;;5030868;28;19917;-70
2023/09/08 00:17:20;;;;;;;;;;;19.40;56.90;;;;;;5030332;28;19921;-70
2023/09/08 00:19:46;;;;;;;;;;;19.40;57.30;;;;;;5030840;28;19924;-71
2023/09/08 00:22:12;;;;;;;;;;;19.40;57.20;;;;;;5013207;28;20024;-70
2023/09/08 00:24:38;;;;;;;;;;;19.30;57.30;;;;;;5030988;28;19986;-69
2023/09/08 00:27:03;;;;;;;;;;;19.30;57.30;;;;;;5031667;28;19923;-70
2023/09/08 00:29:29;;;;;;;;;;;19.20;57.40;;;;;;5030961;28;19987;-70
2023/09/08 00:31:55;;;;;;;;;;;19.20;58.00;;;;;;5031206;28;19921;-70
2023/09/08 00:34:21;;;;;;;;;;;19.20;57.90;;;;;;5030826;28;20439;-70
2023/09/08 00:36:47;;;;;;;;;;;19.20;57.70;;;;;;5030283;28;19924;-70
2023/09/08 00:39:13;;;;;;;;;;;19.20;58.10;;;;;;5030690;28;19929;-70
2023/09/08 00:41:39;;;;;;;;;;;19.20;58.10;;;;;;5031018;28;19921;-70
2023/09/08 00:44:05;;;;;;;;;;;19.20;57.80;;;;;;5030726;28;20370;-70
2023/09/08 00:46:31;;;;;;;;;;;19.10;57.40;;;;;;5031529;28;19921;-70
2023/09/08 00:48:57;;;;;;;;;;;19.20;58.10;;;;;;5030643;28;20317;-70
2023/09/08 00:51:23;;;;;;;;;;;19.10;58.30;;;;;;5029483;28;20317;-69
2023/09/08 00:53:49;;;;;;;;;;;19.10;58.20;;;;;;5031990;28;19931;-70
2023/09/08 00:56:15;;;;;;;;;;;19.00;58.00;;;;;;5013523;28;19920;-70
2023/09/08 00:58:41;;;;;;;;;;;19.00;58.20;;;;;;5032014;28;19925;-70
2023/09/08 01:01:07;;;;;;;;;;;19.00;58.80;;;;;;5032595;28;19952;-70
2023/09/08 01:03:33;;;;;;;;;;;18.90;58.70;;;;;;5034355;28;20350;-70
2023/09/08 01:06:00;;;;;;;;;;;18.90;58.70;;;;;;5034957;28;19932;-70
2023/09/08 01:08:26;;;;;;;;;;;18.80;59.00;;;;;;5034088;28;19925;-70
2023/09/08 01:10:52;;;;;;;;;;;18.70;59.10;;;;;;5034439;28;19953;-70
2023/09/08 01:13:18;;;;;;;;;;;18.70;58.60;;;;;;5017203;28;19925;-70
2023/09/08 01:15:44;;;;;;;;;;;18.70;59.20;;;;;;5033520;28;20427;-70
2023/09/08 01:18:09;;;;;;;;;;;18.60;59.20;;;;;;5035283;28;19932;-70
2023/09/08 01:21:07;;;;;;;;;;;18.60;59.20;;;;;;5032968;28;19952;-70
2023/09/08 01:23:57;;;;;;;;;;;18.50;59.40;;;;;;5035576;28;19926;-70
2023/09/08 01:26:27;;;;;;;;;;;18.40;59.50;;;;;;5033417;28;20370;-70
2023/09/08 01:28:53;;;;;;;;;;;18.40;59.80;;;;;;5035276;28;19936;-70
2023/09/08 01:31:19;;;;;;;;;;;18.40;59.80;;;;;;5032770;28;19963;-70
2023/09/08 01:33:45;;;;;;;;;;;18.30;59.20;;;;;;5035139;28;19979;-70
2023/09/08 01:36:11;;;;;;;;;;;18.30;60.30;;;;;;5034443;28;19917;-70
2023/09/08 01:38:37;;;;;;;;;;;18.30;59.70;;;;;;5033617;28;19925;-70
2023/09/08 01:41:03;;;;;;;;;;;18.30;60.20;;;;;;5033714;28;20431;-70
2023/09/08 01:43:29;;;;;;;;;;;18.30;60.20;;;;;;5035010;28;19925;-70
2023/09/08 01:45:55;;;;;;;;;;;18.20;60.30;;;;;;5016581;28;19922;-69
2023/09/08 01:48:21;;;;;;;;;;;18.20;59.80;;;;;;5033408;28;19990;-70
2023/09/08 01:50:47;;;;;;;;;;;18.10;60.30;;;;;;5032412;28;19928;-70
2023/09/08 01:53:13;;;;;;;;;;;18.00;60.30;;;;;;5033330;28;19928;-70
2023/09/08 01:55:39;;;;;;;;;;;17.90;60.70;;;;;;5032944;28;20370;-70
2023/09/08 01:58:05;;;;;;;;;;;17.90;61.70;;;;;;5034795;28;19929;-70
2023/09/08 02:00:31;;;;;;;;;;;17.80;61.30;;;;;;5032047;28;20461;-69
2023/09/08 02:02:57;;;;;;;;;;;17.80;60.90;;;;;;5033201;28;19987;-70
2023/09/08 02:05:25;;;;;;;;;;;17.80;61.10;;;;;;5032735;28;19925;-70
2023/09/08 02:07:51;;;;;;;;;;;17.80;61.30;;;;;;5033110;28;19944;-70
2023/09/08 02:10:17;;;;;;;;;;;17.80;61.40;;;;;;5031933;28;19925;-70
2023/09/08 02:12:43;;;;;;;;;;;17.70;61.30;;;;;;5016353;28;19936;-70
2023/09/08 02:15:11;;;;;;;;;;;17.70;61.70;;;;;;5033752;28;20011;-70
2023/09/08 02:17:36;;;;;;;;;;;17.70;61.50;;;;;;5034209;28;19968;-70
2023/09/08 02:20:03;;;;;;;;;;;17.70;61.40;;;;;;5015627;28;20031;-71
2023/09/08 02:22:29;;;;;;;;;;;17.60;61.40;;;;;;5033646;28;19925;-70
2023/09/08 02:24:56;;;;;;;;;;;17.60;61.60;;;;;;5032741;28;19917;-71
2023/09/08 02:27:22;;;;;;;;;;;17.60;61.90;;;;;;5033515;28;19924;-70
2023/09/08 02:29:48;;;;;;;;;;;17.60;62.20;;;;;;5032747;28;20175;-70
2023/09/08 02:32:14;;;;;;;;;;;17.50;62.10;;;;;;5032938;28;20385;-70
2023/09/08 02:34:42;;;;;;;;;;;17.60;62.00;;;;;;5033788;28;20012;-70
2023/09/08 02:37:08;;;;;;;;;;;17.50;62.00;;;;;;5033197;28;20298;-70
2023/09/08 02:39:34;;;;;;;;;;;17.50;62.10;;;;;;5032582;28;19925;-70
2023/09/08 02:42:00;;;;;;;;;;;17.50;62.00;;;;;;5031538;28;20023;-70
2023/09/08 02:44:26;;;;;;;;;;;17.50;62.00;;;;;;5032434;28;20004;-70
2023/09/08 02:46:52;;;;;;;;;;;17.50;62.60;;;;;;5031996;28;19921;-70
2023/09/08 02:49:18;;;;;;;;;;;17.40;62.40;;;;;;5032348;28;20020;-69
2023/09/08 02:51:44;;;;;;;;;;;17.40;62.30;;;;;;5032516;28;19975;-70
2023/09/08 02:54:10;;;;;;;;;;;17.40;62.60;;;;;;5033577;28;20003;-70
2023/09/08 02:56:36;;;;;;;;;;;17.30;62.50;;;;;;5031773;28;19957;-70
2023/09/08 02:59:02;;;;;;;;;;;17.30;62.40;;;;;;5033517;28;19931;-70
2023/09/08 03:01:28;;;;;;;;;;;17.20;62.10;;;;;;5032457;28;19921;-70
2023/09/08 03:03:53;;;;;;;;;;;17.20;62.30;;;;;;5033466;28;20345;-70
2023/09/08 03:06:20;;;;;;;;;;;17.10;62.90;;;;;;5031502;28;20317;-70
2023/09/08 03:08:46;;;;;;;;;;;17.10;62.70;;;;;;5031975;28;19925;-70
2023/09/08 03:11:13;;;;;;;;;;;17.00;62.20;;;;;;5030891;28;19933;-71
2023/09/08 03:13:39;;;;;;;;;;;17.00;63.20;;;;;;5031440;28;19925;-71
2023/09/08 03:16:06;;;;;;;;;;;17.00;63.20;;;;;;5014813;28;20420;-70
2023/09/08 03:18:33;;;;;;;;;;;17.00;63.40;;;;;;5031780;28;19925;-70
2023/09/08 03:21:01;;;;;;;;;;;16.90;63.50;;;;;;5030812;28;19921;-70
2023/09/08 03:23:27;;;;;;;;;;;16.90;63.10;;;;;;5032576;28;20301;-70
2023/09/08 03:25:53;;;;;;;;;;;16.90;63.20;;;;;;5031200;28;19917;-70
2023/09/08 03:28:19;;;;;;;;;;;16.90;63.10;;;;;;5033127;28;20020;-70
2023/09/08 03:30:45;;;;;;;;;;;16.90;63.00;;;;;;5031714;28;19955;-70
2023/09/08 03:33:11;;;;;;;;;;;16.80;62.30;;;;;;5032694;28;19929;-70
2023/09/08 03:35:37;;;;;;;;;;;16.80;62.80;;;;;;5032226;28;19963;-70
2023/09/08 03:38:03;;;;;;;;;;;16.80;62.80;;;;;;5032553;28;20007;-70
2023/09/08 03:40:29;;;;;;;;;;;16.80;63.50;;;;;;5030324;28;19925;-70
2023/09/08 03:42:55;;;;;;;;;;;16.80;63.50;;;;;;5031397;28;20007;-70
2023/09/08 03:45:21;;;;;;;;;;;16.70;63.80;;;;;;5014233;28;20019;-70
2023/09/08 03:47:46;;;;;;;;;;;16.70;64.00;;;;;;5032733;28;20011;-70
2023/09/08 03:50:12;;;;;;;;;;;16.70;64.10;;;;;;5030162;28;20020;-70
2023/09/08 03:52:38;;;;;;;;;;;16.70;64.40;;;;;;5031376;28;19925;-70
2023/09/08 03:55:04;;;;;;;;;;;16.70;64.20;;;;;;5030850;28;19917;-70
2023/09/08 03:57:30;;;;;;;;;;;16.70;64.30;;;;;;5032163;28;19929;-70
2023/09/08 03:59:56;;;;;;;;;;;16.70;64.20;;;;;;5030802;28;19917;-70
2023/09/08 04:02:22;;;;;;;;;;;16.70;64.50;;;;;;5030086;28;19925;-70
2023/09/08 04:04:48;;;;;;;;;;;16.60;64.10;;;;;;5032145;28;19921;-70
2023/09/08 04:07:13;;;;;;;;;;;16.60;64.30;;;;;;5030415;28;20008;-70
2023/09/08 04:09:39;;;;;;;;;;;16.50;64.60;;;;;;5032035;28;20449;-70
2023/09/08 04:12:07;;;;;;;;;;;16.50;64.70;;;;;;5030048;28;20016;-70
2023/09/08 04:14:33;;;;;;;;;;;16.50;64.90;;;;;;5030696;28;19929;-70
2023/09/08 04:16:59;;;;;;;;;;;16.50;64.80;;;;;;5031875;28;19971;-71
2023/09/08 04:19:26;;;;;;;;;;;16.50;64.70;;;;;;5032579;28;20008;-70
2023/09/08 04:21:51;;;;;;;;;;;16.50;64.60;;;;;;5031197;28;19957;-70
2023/09/08 04:24:17;;;;;;;;;;;16.50;64.70;;;;;;5030891;28;19979;-70
2023/09/08 04:26:43;;;;;;;;;;;16.50;64.40;;;;;;5031733;28;20011;-70
2023/09/08 04:29:09;;;;;;;;;;;16.50;64.40;;;;;;5030865;28;19960;-70
2023/09/08 04:31:35;;;;;;;;;;;16.50;64.50;;;;;;5030883;28;19921;-69
2023/09/08 04:34:01;;;;;;;;;;;16.50;64.50;;;;;;5032272;28;20012;-70
2023/09/08 04:36:26;;;;;;;;;;;16.50;64.60;;;;;;5035569;28;20289;-71
2023/09/08 04:38:52;;;;;;;;;;;16.40;64.20;;;;;;5034785;28;20325;-71
2023/09/08 04:41:18;;;;;;;;;;;16.40;64.40;;;;;;5035134;28;19921;-70
2023/09/08 04:43:44;;;;;;;;;;;16.30;64.50;;;;;;5034708;28;20023;-70
2023/09/08 04:46:10;;;;;;;;;;;16.30;64.50;;;;;;5034275;28;20024;-70
2023/09/08 04:48:36;;;;;;;;;;;16.30;64.50;;;;;;5034570;28;19929;-70
2023/09/08 04:51:02;;;;;;;;;;;16.30;64.30;;;;;;5033418;28;19964;-70
2023/09/08 04:53:27;;;;;;;;;;;16.30;64.20;;;;;;5035895;28;20405;-70
2023/09/08 04:55:53;;;;;;;;;;;16.30;64.00;;;;;;5035107;28;20301;-70
2023/09/08 04:58:19;;;;;;;;;;;16.30;64.10;;;;;;5034438;28;19947;-70
2023/09/08 05:00:45;;;;;;;;;;;16.20;64.30;;;;;;5034650;28;19921;-70
2023/09/08 05:03:11;;;;;;;;;;;16.20;64.20;;;;;;5034246;28;20370;-71
2023/09/08 05:05:37;;;;;;;;;;;16.30;64.20;;;;;;5035004;28;19920;-71
2023/09/08 05:08:03;;;;;;;;;;;16.30;64.20;;;;;;5034401;28;19951;-70
2023/09/08 05:10:29;;;;;;;;;;;16.30;63.80;;;;;;5033161;28;19986;-70
2023/09/08 05:12:55;;;;;;;;;;;16.40;64.70;;;;;;5035195;28;20008;-70
2023/09/08 05:15:21;;;;;;;;;;;16.40;65.00;;;;;;5033606;28;19924;-70
2023/09/08 05:17:47;;;;;;;;;;;16.40;65.10;;;;;;5034008;28;20369;-70
2023/09/08 05:20:13;;;;;;;;;;;16.40;65.10;;;;;;5032925;28;19927;-70
2023/09/08 05:22:39;;;;;;;;;;;16.40;65.00;;;;;;5034300;28;19936;-70
2023/09/08 05:25:05;;;;;;;;;;;16.40;64.90;;;;;;5033820;28;19921;-70
2023/09/08 05:27:31;;;;;;;;;;;16.40;64.70;;;;;;5035108;28;19932;-70
2023/09/08 05:29:58;;;;;;;;;;;16.50;65.60;;;;;;5034805;28;19917;-70
2023/09/08 05:32:24;;;;;;;;;;;16.50;65.30;;;;;;5032765;28;19967;-71
2023/09/08 05:34:50;;;;;;;;;;;16.50;65.70;;;;;;5033657;28;19925;-70
2023/09/08 05:37:16;;;;;;;;;;;16.50;65.80;;;;;;5033279;28;19917;-69
2023/09/08 05:39:42;;;;;;;;;;;16.60;66.60;;;;;;5034772;28;20004;-70
2023/09/08 05:42:08;;;;;;;;;;;16.50;67.70;;;;;;5032907;28;20475;-71
2023/09/08 05:44:33;;;;;;;;;;;16.50;66.90;;;;;;5016953;28;19928;-71
2023/09/08 05:46:59;;;;;;;;;;;16.60;67.40;;;;;;5016436;28;19918;-70
2023/09/08 05:49:25;;;;;;;;;;;16.60;67.20;;;;;;5035127;28;19925;-70
2023/09/08 05:51:51;;;;;;;;;;;16.70;67.40;;;;;;5015820;28;19927;-70
2023/09/08 05:54:17;;;;;;;;;;;16.70;67.20;;;;;;5033345;28;19929;-70
2023/09/08 05:56:43;;;;;;;;;;;16.80;67.60;;;;;;5034410;28;20378;-70
2023/09/08 05:59:09;;;;;;;;;;;16.80;67.80;;;;;;5033541;28;19929;-70
2023/09/08 06:01:36;;;;;;;;;;;16.80;67.70;;;;;;5015790;28;19928;-71
2023/09/08 06:04:02;;;;;;;;;;;16.90;67.40;;;;;;5016749;28;19929;-70
2023/09/08 06:06:29;;;;;;;;;;;16.90;67.50;;;;;;5032859;28;19924;-70
2023/09/08 06:08:55;;;;;;;;;;;17.00;67.60;;;;;;5033003;28;19925;-70
2023/09/08 06:11:21;;;;;;;;;;;17.10;68.20;;;;;;5033393;28;20328;-70
2023/09/08 06:13:47;;;;;;;;;;;17.10;69.10;;;;;;5033877;28;19955;-70
2023/09/08 06:16:13;;;;;;;;;;;17.10;68.90;;;;;;5032594;28;20344;-70
2023/09/08 06:18:43;;;;;;;;;;;17.20;69.60;;;;;;5024594;28;20019;-69
2023/09/08 06:21:09;;;;;;;;;;;17.30;69.80;;;;;;5012619;28;19925;-70
2023/09/08 06:23:36;;;;;;;;;;;17.30;69.80;;;;;;5014717;28;19987;-69
2023/09/08 06:26:02;;;;;;;;;;;17.40;69.60;;;;;;5012673;28;19921;-70
2023/09/08 06:28:28;;;;;;;;;;;17.50;69.50;;;;;;4996614;28;19936;-69
2023/09/08 06:30:54;;;;;;;;;;;17.60;69.20;;;;;;5011763;28;20291;-70
2023/09/08 06:33:20;;;;;;;;;;;17.70;68.20;;;;;;5012901;28;19964;-70
2023/09/08 06:35:47;;;;;;;;;;;17.80;68.70;;;;;;5012223;28;19921;-69
2023/09/08 06:38:13;;;;;;;;;;;17.90;68.90;;;;;;5014158;28;19925;-70
2023/09/08 06:40:39;;;;;;;;;;;18.00;69.00;;;;;;5011737;28;19948;-70
2023/09/08 06:43:05;;;;;;;;;;;18.10;68.70;;;;;;5012612;28;19926;-70
2023/09/08 06:45:31;;;;;;;;;;;18.20;68.40;;;;;;5028721;28;19925;-70
2023/09/08 06:47:57;;;;;;;;;;;18.40;68.60;;;;;;5012482;28;19931;-70
2023/09/08 06:50:23;;;;;;;;;;;18.50;68.20;;;;;;5012889;28;20020;-70
2023/09/08 06:52:50;;;;;;;;;;;18.60;67.60;;;;;;5012616;28;19926;-69
2023/09/08 06:55:16;;;;;;;;;;;18.70;67.30;;;;;;5011886;28;19934;-70
2023/09/08 06:58:01;;;;;;;;;;;18.80;67.00;;;;;;5013179;28;19929;-70
2023/09/08 07:00:28;;;;;;;;;;;19.00;67.10;;;;;;5012521;28;19933;-70
2023/09/08 07:02:53;;;;;;;;;;;19.10;66.90;;;;;;5014164;28;19922;-70
2023/09/08 07:05:19;;;;;;;;;;;19.20;66.70;;;;;;5011840;28;19973;-70
2023/09/08 07:07:45;;;;;;;;;;;19.40;66.80;;;;;;5012364;28;20271;-70
2023/09/08 07:10:12;;;;;;;;;;;19.60;66.60;;;;;;4994893;28;19921;-70
2023/09/08 07:12:38;;;;;;;;;;;19.70;65.60;;;;;;5012042;28;19926;-69
2023/09/08 07:15:04;;;;;;;;;;;19.90;65.50;;;;;;5012011;28;19923;-70
2023/09/08 07:17:30;;;;;;;;;;;20.10;64.70;;;;;;5011820;28;19926;-70
2023/09/08 07:19:56;;;;;;;;;;;20.40;64.40;;;;;;5011782;28;19964;-70
2023/09/08 07:22:22;;;;;;;;;;;20.80;63.90;;;;;;5010857;28;19948;-70
2023/09/08 07:24:48;;;;;;;;;;;21.50;63.10;;;;;;5013126;28;20450;-70
2023/09/08 07:27:14;;;;;;;;;;;22.30;62.50;;;;;;5012684;28;19924;-70
2023/09/08 07:29:40;;;;;;;;;;;23.00;61.20;;;;;;5012972;28;19929;-70
2023/09/08 07:32:07;;;;;;;;;;;23.80;58.60;;;;;;5012359;28;19975;-70
2023/09/08 07:34:33;;;;;;;;;;;24.50;56.80;;;;;;5011835;28;20279;-70
2023/09/08 07:37:00;;;;;;;;;;;25.40;52.70;;;;;;5011522;28;19951;-70
2023/09/08 07:39:26;;;;;;;;;;;26.00;50.30;;;;;;5013569;28;20358;-70
2023/09/08 07:41:53;;;;;;;;;;;26.70;47.40;;;;;;5012134;28;19928;-71
2023/09/08 07:44:19;;;;;;;;;;;27.40;45.80;;;;;;4996012;28;19925;-70
2023/09/08 07:46:46;;;;;;;;;;;28.00;43.10;;;;;;5012493;28;20302;-70
2023/09/08 07:49:12;;;;;;;;;;;28.70;42.00;;;;;;5011760;28;19925;-70
2023/09/08 07:51:37;;;;;;;;;;;29.40;40.30;;;;;;5010558;28;20016;-70
2023/09/08 07:54:04;;;;;;;;;;;30.10;38.70;;;;;;5011224;28;20287;-70
2023/09/08 07:56:30;;;;;;;;;;;30.70;37.50;;;;;;5010925;28;20382;-71
2023/09/08 07:58:56;;;;;;;;;;;31.30;36.80;;;;;;5012869;28;19925;-70
2023/09/08 08:01:21;;;;;;;;;;;32.00;34.30;;;;;;5010355;28;20008;-70
2023/09/08 08:03:47;;;;;;;;;;;32.60;34.00;;;;;;5012835;28;20024;-70
2023/09/08 08:06:13;;;;;;;;;;;33.10;32.30;;;;;;5010909;28;20004;-70
2023/09/08 08:08:40;;;;;;;;;;;33.70;30.20;;;;;;5011141;28;19929;-70
2023/09/08 08:11:25;;;;;;;;;;;34.30;29.50;;;;;;5011581;28;19933;-70
2023/09/08 08:13:51;;;;;;;;;;;34.80;27.50;;;;;;5010980;28;19937;-71
2023/09/08 08:16:17;;;;;;;;;;;35.30;28.10;;;;;;5012071;28;20346;-71
2023/09/08 08:18:43;;;;;;;;;;;35.80;26.50;;;;;;5012677;28;20028;-71
2023/09/08 08:21:09;;;;;;;;;;;36.20;25.90;;;;;;5010021;28;19996;-71
2023/09/08 08:23:36;;;;;;;;;;;36.60;24.00;;;;;;5011367;28;20417;-71
2023/09/08 08:26:02;;;;;;;;;;;36.80;22.90;;;;;;5012009;28;20279;-71
2023/09/08 08:28:28;;;;;;;;;;;37.20;23.50;;;;;;5027467;28;19965;-72
2023/09/08 08:30:55;;;;;;;;;;;37.80;22.80;;;;;;5010032;28;20008;-71
2023/09/08 08:33:22;;;;;;;;;;;38.30;22.60;;;;;;5010830;28;19925;-71
2023/09/08 08:35:52;;;;;;;;;;;38.60;21.00;;;;;;5011803;28;20409;-71
2023/09/08 08:38:18;;;;;;;;;;;38.90;20.00;;;;;;5011099;28;20003;-71
2023/09/08 08:40:44;;;;;;;;;;;39.30;20.10;;;;;;5010133;28;19921;-71
2023/09/08 08:43:10;;;;;;;;;;;39.70;19.40;;;;;;5012341;28;19952;-71
2023/09/08 08:45:37;;;;;;;;;;;40.20;19.10;;;;;;5010615;28;19917;-71
2023/09/08 08:48:04;;;;;;;;;;;40.30;18.90;;;;;;5010857;28;19929;-71
2023/09/08 08:50:32;;;;;;;;;;;40.60;17.80;;;;;;5009983;28;20015;-71
2023/09/08 08:52:59;;;;;;;;;;;40.90;17.20;;;;;;5012280;28;19933;-71
2023/09/08 08:55:25;;;;;;;;;;;41.20;17.20;;;;;;5011625;28;19922;-71
2023/09/08 08:57:51;;;;;;;;;;;41.60;17.10;;;;;;5011043;28;20382;-71
2023/09/08 09:00:18;;;;;;;;;;;42.00;17.30;;;;;;4993245;28;19948;-72
2023/09/08 09:02:45;;;;;;;;;;;42.40;16.60;;;;;;5012274;28;19929;-71
2023/09/08 09:05:12;;;;;;;;;;;42.60;16.10;;;;;;5010581;28;19948;-71
2023/09/08 09:07:39;;;;;;;;;;;43.10;16.20;;;;;;5012118;28;19925;-71
2023/09/08 09:10:07;;;;;;;;;;;43.40;15.90;;;;;;5010229;28;19922;-72
2023/09/08 09:12:33;;;;;;;;;;;43.80;15.30;;;;;;5010465;28;19961;-71
2023/09/08 09:15:00;;;;;;;;;;;44.10;15.30;;;;;;5011945;28;19926;-70
2023/09/08 09:17:26;;;;;;;;;;;44.50;14.80;;;;;;5011512;28;20283;-71
2023/09/08 09:20:30;;;;;;;;;;;44.90;14.60;;;;;;5011840;28;20032;-71
2023/09/08 09:22:56;;;;;;;;;;;45.30;14.50;;;;;;5015450;28;19925;-71
2023/09/08 09:25:40;;;;;;;;;;;46.00;14.60;;;;;;5013674;28;19928;-71
2023/09/08 09:28:06;;;;;;;;;;;46.50;13.80;;;;;;4997674;28;20393;-70
2023/09/08 09:30:51;;;;;;;;;;;46.80;13.60;;;;;;5014252;28;19922;-71
2023/09/08 09:33:17;;;;;;;;;;;47.00;13.40;;;;;;5013936;28;19925;-71
2023/09/08 09:36:02;;;;;;;;;;;47.40;13.20;;;;;;5013680;28;20156;-70
2023/09/08 09:38:29;;;;;;;;;;;47.60;13.00;;;;;;5013763;28;20393;-70
2023/09/08 09:40:55;;;;;;;;;;;48.00;13.00;;;;;;5013061;28;19964;-72
2023/09/08 09:43:22;;;;;;;;;;;48.20;12.80;;;;;;5013531;28;19933;-71
2023/09/08 09:45:48;;;;;;;;;;;48.20;12.30;;;;;;5014477;28;20294;-71
2023/09/08 09:48:14;;;;;;;;;;;48.50;12.30;;;;;;5013738;28;19925;-71
2023/09/08 09:50:43;;;;;;;;;;;48.90;11.30;;;;;;5012650;28;20438;-71
2023/09/08 09:53:10;;;;;;;;;;;49.20;12.20;;;;;;5013467;28;19925;-71
2023/09/08 09:55:40;;;;;;;;;;;49.70;11.50;;;;;;5013291;28;19917;-70
2023/09/08 09:58:07;;;;;;;;;;;50.00;11.90;;;;;;5013450;28;19925;-72
2023/09/08 10:00:35;;;;;;;;;;;50.30;11.20;;;;;;4996084;28;19921;-71
2023/09/08 10:03:02;;;;;;;;;;;50.60;11.20;;;;;;5013361;28;19929;-71
2023/09/08 10:05:28;;;;;;;;;;;50.80;11.10;;;;;;5013004;28;20404;-71
2023/09/08 10:07:54;;;;;;;;;;;51.30;10.80;;;;;;5014900;28;20008;-71
2023/09/08 10:10:21;;;;;;;;;;;51.80;11.00;;;;;;5028838;28;19958;-71
2023/09/08 10:13:06;;;;;;;;;;;51.90;10.50;;;;;;5013180;28;19926;-72
2023/09/08 10:15:33;;;;;;;;;;;52.10;10.80;;;;;;5013997;28;19917;-71
2023/09/08 10:17:59;;;;;;;;;;;52.10;9.90;;;;;;5013183;28;20409;-71
2023/09/08 10:20:28;;;;;;;;;;;52.60;9.80;;;;;;5012282;28;19926;-71
2023/09/08 10:23:15;;;;;;;;;;;52.80;9.90;;;;;;5013267;28;19969;-71
2023/09/08 10:25:43;;;;;;;;;;;53.30;9.90;;;;;;5012802;28;19922;-71
2023/09/08 10:28:12;;;;;;;;;;;53.70;9.80;;;;;;5012805;28;19945;-71
2023/09/08 10:30:38;;;;;;;;;;;53.70;9.30;;;;;;5028513;28;19922;-72
2023/09/08 10:33:06;;;;;;;;;;;53.50;9.60;;;;;;4996599;28;19933;-72
2023/09/08 10:35:32;;;;;;;;;;;53.00;9.50;;;;;;5012375;28;19972;-71
2023/09/08 10:38:37;;;;;;;;;;;52.30;9.70;;;;;;5012801;28;19925;-70
2023/09/08 10:41:22;;;;;;;;;;;50.70;10.30;;;;;;5013107;28;20357;-71
2023/09/08 10:44:07;;;;;;;;;;;49.50;11.40;;;;;;5014236;28;19948;-71
2023/09/08 10:46:36;;;;;;;;;;;48.70;11.80;;;;;;5012395;28;20028;-71
2023/09/08 10:49:04;;;;;;;;;;;49.70;11.40;;;;;;5014075;28;19932;-71
2023/09/08 10:51:30;;;;;;;;;;;50.10;11.00;;;;;;5011491;28;20406;-71
2023/09/08 10:53:57;;;;;;;;;;;49.40;11.90;;;;;;5012729;28;19932;-71
2023/09/08 10:56:27;;;;;;;;;;;48.30;12.80;;;;;;5012049;28;20020;-71
2023/09/08 10:58:54;;;;;;;;;;;47.40;12.80;;;;;;5012664;28;20370;-70
2023/09/08 11:04:08;;;;;;;;;;;47.90;11.40;;;;;;5013912;28;20382;-72
2023/09/08 11:06:34;;;;;;;;;;;46.50;12.60;;;;;;5028117;28;19963;-71
2023/09/08 11:09:07;;;;;;;;;;;45.70;13.70;;;;;;5012245;28;19926;-71
2023/09/08 11:11:33;;;;;;;;;;;44.90;14.10;;;;;;5007828;28;19968;-72
2023/09/08 11:13:59;;;;;;;;;;;45.60;14.20;;;;;;5004132;28;19930;-71
2023/09/08 11:16:29;;;;;;;;;;;47.00;13.50;;;;;;4988773;28;19924;-72
2023/09/08 11:18:55;;;;;;;;;;;48.60;11.90;;;;;;5005568;28;20599;-71
2023/09/08 11:21:21;;;;;;;;;;;49.80;11.10;;;;;;5006578;28;19967;-71
2023/09/08 11:23:47;;;;;;;;;;;50.70;11.20;;;;;;5022195;28;20363;-71
2023/09/08 11:26:13;;;;;;;;;;;51.60;10.60;;;;;;5021916;28;19921;-71
2023/09/08 11:28:40;;;;;;;;;;;52.10;10.30;;;;;;5022150;28;19935;-72
2023/09/08 11:31:06;;;;;;;;;;;52.30;10.30;;;;;;5004738;28;19922;-72
2023/09/08 11:33:34;;;;;;;;;;;51.90;10.10;;;;;;5005759;28;19952;-71
2023/09/08 11:36:00;;;;;;;;;;;51.30;10.10;;;;;;5005908;28;19917;-71
2023/09/08 11:38:27;;;;;;;;;;;51.70;10.00;;;;;;5005723;28;19983;-71
2023/09/08 11:41:11;;;;;;;;;;;52.30;9.90;;;;;;5004793;28;19965;-71
2023/09/08 11:43:37;;;;;;;;;;;52.30;10.00;;;;;;5005380;28;19953;-71
2023/09/08 11:46:03;;;;;;;;;;;51.40;10.40;;;;;;5005517;28;19922;-71
2023/09/08 11:48:29;;;;;;;;;;;51.20;10.80;;;;;;5005770;28;20393;-71
2023/09/08 11:50:55;;;;;;;;;;;51.20;10.20;;;;;;5004732;28;19933;-72
2023/09/08 11:53:21;;;;;;;;;;;51.20;10.50;;;;;;5021830;28;19925;-71
2023/09/08 11:55:47;;;;;;;;;;;51.20;10.00;;;;;;5021939;28;20000;-71
2023/09/08 11:58:14;;;;;;;;;;;51.90;9.60;;;;;;5006552;28;19976;-71
2023/09/08 12:00:40;;;;;;;;;;;52.50;9.40;;;;;;5006555;28;19930;-71
2023/09/08 12:03:25;;;;;;;;;;;51.70;9.80;;;;;;5024691;28;19929;-71
2023/09/08 12:05:52;;;;;;;;;;;50.50;10.20;;;;;;5013225;28;19925;-71
2023/09/08 12:08:18;;;;;;;;;;;51.50;9.50;;;;;;5019837;28;19929;-71
2023/09/08 12:10:44;;;;;;;;;;;52.50;9.80;;;;;;5025232;28;20106;-70
2023/09/08 12:13:10;;;;;;;;;;;52.10;9.80;;;;;;5024734;28;20329;-70
2023/09/08 12:15:37;;;;;;;;;;;50.60;10.10;;;;;;5024221;28;19921;-71
2023/09/08 12:18:05;;;;;;;;;;;48.80;11.00;;;;;;5026106;28;19997;-71
2023/09/08 12:20:32;;;;;;;;;;;47.90;10.60;;;;;;5023791;28;19921;-70
2023/09/08 12:23:18;;;;;;;;;;;46.90;11.40;;;;;;5024759;28;20325;-71
2023/09/08 12:26:03;;;;;;;;;;;47.90;12.00;;;;;;5017827;28;20016;-70
2023/09/08 12:28:31;;;;;;;;;;;50.20;10.60;;;;;;5023595;28;19924;-71
2023/09/08 12:30:57;;;;;;;;;;;51.70;9.20;;;;;;5010602;28;19956;-71
2023/09/08 12:33:22;;;;;;;;;;;53.00;9.40;;;;;;5024659;28;20381;-71
2023/09/08 12:35:50;;;;;;;;;;;53.80;8.70;;;;;;5024696;28;19936;-72
2023/09/08 12:38:16;;;;;;;;;;;54.50;8.70;;;;;;5024889;28;20290;-71
2023/09/08 12:40:42;;;;;;;;;;;54.80;8.70;;;;;;5023576;28;19921;-70
2023/09/08 12:43:08;;;;;;;;;;;55.40;8.90;;;;;;5025819;28;20024;-71
2023/09/08 12:45:34;;;;;;;;;;;55.70;7.00;;;;;;5040144;28;19917;-70
2023/09/08 12:48:02;;;;;;;;;;;55.80;7.50;;;;;;5025856;28;20456;-70
2023/09/08 12:50:29;;;;;;;;;;;56.10;7.80;;;;;;5023886;28;19933;-70
2023/09/08 12:52:55;;;;;;;;;;;56.20;8.00;;;;;;5025610;28;19928;-71
2023/09/08 12:55:21;;;;;;;;;;;56.30;7.70;;;;;;5022168;28;19928;-70
2023/09/08 12:57:46;;;;;;;;;;;56.60;7.20;;;;;;5009027;28;20260;-72
2023/09/08 13:00:13;;;;;;;;;;;56.80;7.20;;;;;;5008075;28;19945;-72
2023/09/08 13:02:41;;;;;;;;;;;57.00;7.40;;;;;;5010948;28;20342;-71
2023/09/08 13:05:07;;;;;;;;;;;56.90;6.70;;;;;;5009448;28;19921;-70
2023/09/08 13:07:33;;;;;;;;;;;56.90;6.90;;;;;;5014917;28;19983;-70
2023/09/08 13:09:59;;;;;;;;;;;57.30;6.60;;;;;;5028780;28;19921;-71
2023/09/08 13:12:25;;;;;;;;;;;57.30;7.00;;;;;;5027774;28;19925;-71
2023/09/08 13:14:51;;;;;;;;;;;57.60;7.30;;;;;;5028933;28;19929;-70
2023/09/08 13:17:17;;;;;;;;;;;57.90;7.10;;;;;;5029582;28;19925;-70
2023/09/08 13:20:03;;;;;;;;;;;58.20;7.40;;;;;;5028547;28;19967;-70
2023/09/08 13:22:29;;;;;;;;;;;58.20;6.90;;;;;;5027495;28;19925;-70
2023/09/08 13:24:55;;;;;;;;;;;58.00;7.10;;;;;;5028237;28;19921;-69
2023/09/08 13:27:21;;;;;;;;;;;57.80;6.90;;;;;;5027932;28;20007;-71
2023/09/08 13:29:48;;;;;;;;;;;57.70;7.10;;;;;;5029316;28;20365;-70
2023/09/08 13:32:14;;;;;;;;;;;57.50;7.30;;;;;;5027101;28;19925;-71
2023/09/08 13:34:40;;;;;;;;;;;57.30;7.70;;;;;;5027965;28;19921;-71
2023/09/08 13:37:05;;;;;;;;;;;57.70;7.20;;;;;;5028692;28;20400;-71
2023/09/08 13:39:31;;;;;;;;;;;57.70;7.10;;;;;;5028595;28;19925;-71
2023/09/08 13:41:59;;;;;;;;;;;57.80;7.00;;;;;;5028292;28;19996;-71
2023/09/08 13:44:25;;;;;;;;;;;57.80;7.20;;;;;;5027258;28;19936;-71
2023/09/08 13:46:53;;;;;;;;;;;57.90;7.30;;;;;;5028755;28;19925;-70
2023/09/08 13:49:19;;;;;;;;;;;58.00;7.20;;;;;;5027484;28;19948;-70
2023/09/08 13:51:46;;;;;;;;;;;58.10;7.10;;;;;;5026379;28;19996;-71
2023/09/08 13:54:12;;;;;;;;;;;57.90;6.50;;;;;;5026965;28;20282;-71
2023/09/08 13:56:39;;;;;;;;;;;57.60;6.50;;;;;;5026638;28;19928;-70
2023/09/08 13:59:06;;;;;;;;;;;57.60;6.50;;;;;;5027119;28;20515;-70
2023/09/08 14:01:53;;;;;;;;;;;57.60;6.80;;;;;;5026834;28;20390;-70
2023/09/08 14:04:19;;;;;;;;;;;57.40;6.90;;;;;;5026877;28;19974;-71
2023/09/08 14:06:45;;;;;;;;;;;57.20;7.10;;;;;;5026453;28;19966;-71
2023/09/08 14:09:11;;;;;;;;;;;57.20;7.20;;;;;;5027010;28;19936;-70
2023/09/08 14:11:37;;;;;;;;;;;57.20;7.30;;;;;;5025726;28;19925;-71
2023/09/08 14:14:03;;;;;;;;;;;57.00;7.10;;;;;;5026490;28;19925;-71
2023/09/08 14:16:29;;;;;;;;;;;56.90;6.70;;;;;;5027955;28;19921;-70
2023/09/08 14:18:55;;;;;;;;;;;56.70;6.90;;;;;;5010504;28;19932;-71
2023/09/08 14:21:21;;;;;;;;;;;56.60;7.20;;;;;;5026901;28;20367;-71
2023/09/08 14:23:47;;;;;;;;;;;56.60;6.80;;;;;;5026916;28;19941;-71